Time;durP1;ratioP1;P1;durP2;ratioP2;P2;SDS_P1;SDS_P2;PMS_P1;PMS_P2;Temp;Humidity;BMP_temperature;BMP_pressure;BME280_temperature;BME280_humidity;BME280_pressure;Samples;Min_cycle;Max_cycle;Signal;HPM_P1;HPM_P2
2022/01/07 00:00:42;;;;;;;19.00;6.85;;;3.20;99.90;;;;;;5030222;28;20040;-70
2022/01/07 00:03:08;;;;;;;20.98;6.53;;;3.20;99.90;;;;;;5044947;28;20045;-71
2022/01/07 00:05:34;;;;;;;16.42;6.55;;;3.30;99.90;;;;;;5016227;28;20035;-66
2022/01/07 00:07:59;;;;;;;17.48;6.35;;;3.30;99.90;;;;;;5046477;28;20181;-70
2022/01/07 00:10:25;;;;;;;15.73;5.65;;;3.30;99.90;;;;;;5036315;28;20041;-69
2022/01/07 00:12:52;;;;;;;17.02;6.25;;;3.30;99.90;;;;;;5021357;28;20397;-69
2022/01/07 00:15:18;;;;;;;17.45;6.72;;;3.30;99.90;;;;;;5041227;28;20144;-67
2022/01/07 00:17:44;;;;;;;14.55;6.32;;;3.30;99.90;;;;;;5018149;28;20071;-70
2022/01/07 00:20:11;;;;;;;16.20;5.82;;;3.30;99.90;;;;;;5038121;28;20045;-69
2022/01/07 00:22:39;;;;;;;18.80;7.07;;;3.30;99.90;;;;;;5037784;28;20465;-69
2022/01/07 00:25:05;;;;;;;17.58;5.85;;;3.30;99.90;;;;;;5036187;28;20111;-66
2022/01/07 00:27:31;;;;;;;13.13;5.70;;;3.30;99.90;;;;;;5028009;28;20040;-67
2022/01/07 00:29:56;;;;;;;19.67;6.60;;;3.30;99.90;;;;;;5041447;28;20033;-70
2022/01/07 00:32:22;;;;;;;17.48;5.40;;;3.30;99.90;;;;;;5028110;28;20044;-68
2022/01/07 00:34:48;;;;;;;15.32;6.40;;;3.30;99.90;;;;;;5017467;28;20090;-70
2022/01/07 00:37:14;;;;;;;13.32;5.80;;;3.30;99.90;;;;;;5041036;28;20049;-70
2022/01/07 00:39:39;;;;;;;13.60;5.80;;;3.30;99.90;;;;;;5040424;28;20132;-69
2022/01/07 00:42:05;;;;;;;18.25;6.05;;;3.30;99.90;;;;;;5040725;28;20412;-66
2022/01/07 00:44:31;;;;;;;13.38;5.22;;;3.20;99.90;;;;;;5027216;28;20128;-72
2022/01/07 00:46:56;;;;;;;20.27;5.20;;;3.20;99.90;;;;;;5033824;28;20040;-71
2022/01/07 00:49:22;;;;;;;18.15;5.25;;;3.20;99.90;;;;;;5028764;28;20472;-70
2022/01/07 00:51:49;;;;;;;12.15;5.45;;;3.20;99.90;;;;;;5042327;28;20041;-70
2022/01/07 00:54:15;;;;;;;19.77;5.70;;;3.20;99.90;;;;;;5039442;28;20030;-71
2022/01/07 00:56:40;;;;;;;10.75;4.70;;;3.20;99.90;;;;;;5015495;28;20362;-70
2022/01/07 00:59:06;;;;;;;14.40;5.43;;;3.10;99.90;;;;;;5025824;28;20037;-67
2022/01/07 01:01:32;;;;;;;14.43;5.72;;;3.00;99.90;;;;;;5038278;28;20033;-70
2022/01/07 01:03:57;;;;;;;16.40;5.90;;;2.90;99.90;;;;;;5043209;28;20121;-66
2022/01/07 01:06:23;;;;;;;16.38;6.07;;;2.80;99.90;;;;;;5036021;28;20051;-68
2022/01/07 01:08:48;;;;;;;15.52;5.65;;;2.70;99.90;;;;;;5044423;28;20040;-66
2022/01/07 01:11:14;;;;;;;16.85;7.03;;;2.60;99.90;;;;;;5027160;28;20037;-69
2022/01/07 01:13:39;;;;;;;17.58;6.03;;;2.50;99.90;;;;;;5032057;28;20049;-68
2022/01/07 01:16:05;;;;;;;16.92;6.25;;;2.50;99.90;;;;;;5046412;28;20040;-67
2022/01/07 01:18:31;;;;;;;14.25;5.88;;;2.40;99.90;;;;;;5041107;28;20620;-66
2022/01/07 01:20:56;;;;;;;16.25;6.22;;;2.40;99.90;;;;;;5032070;28;20476;-67
2022/01/07 01:23:22;;;;;;;19.05;6.38;;;2.40;99.90;;;;;;5028356;28;20152;-66
2022/01/07 01:25:48;;;;;;;14.60;5.90;;;2.30;99.90;;;;;;5042621;28;20038;-67
2022/01/07 01:28:13;;;;;;;16.45;6.80;;;2.30;99.90;;;;;;5030978;28;20400;-66
2022/01/07 01:30:39;;;;;;;14.05;5.93;;;2.20;99.90;;;;;;5044975;28;20037;-66
2022/01/07 01:33:04;;;;;;;15.32;6.03;;;2.20;99.90;;;;;;5038329;28;20395;-67
2022/01/07 01:35:30;;;;;;;16.33;7.22;;;2.10;99.90;;;;;;5046079;28;20330;-68
2022/01/07 01:37:56;;;;;;;16.38;6.90;;;2.20;99.90;;;;;;5049003;28;20049;-68
2022/01/07 01:40:22;;;;;;;16.63;6.32;;;2.20;99.90;;;;;;5018605;28;20049;-68
2022/01/07 01:42:52;;;;;;;20.23;6.90;;;2.10;99.90;;;;;;5039102;28;20050;-66
2022/01/07 01:45:18;;;;;;;15.15;8.18;;;2.10;99.90;;;;;;5029936;28;20030;-67
2022/01/07 01:47:44;;;;;;;17.40;7.40;;;2.10;99.90;;;;;;5048683;28;20442;-65
2022/01/07 01:50:11;;;;;;;18.58;7.53;;;2.10;99.90;;;;;;5030724;28;20040;-68
2022/01/07 01:52:37;;;;;;;17.98;7.72;;;2.10;99.90;;;;;;5025645;28;20071;-67
2022/01/07 01:55:05;;;;;;;18.77;7.90;;;2.10;99.90;;;;;;5014708;28;20044;-66
2022/01/07 01:57:31;;;;;;;17.33;7.47;;;2.10;99.90;;;;;;5033143;28;20059;-66
2022/01/07 01:59:58;;;;;;;18.95;7.03;;;2.10;99.90;;;;;;5034649;28;20040;-67
2022/01/07 02:02:23;;;;;;;18.73;7.90;;;2.10;99.90;;;;;;5020534;28;20182;-63
2022/01/07 02:04:49;;;;;;;26.15;9.07;;;2.10;99.90;;;;;;5021842;28;20515;-67
2022/01/07 02:07:14;;;;;;;16.98;7.93;;;2.10;99.90;;;;;;5036647;28;20120;-68
2022/01/07 02:09:40;;;;;;;17.15;8.00;;;2.10;99.90;;;;;;5037327;28;20477;-67
2022/01/07 02:12:07;;;;;;;23.45;7.80;;;2.10;99.90;;;;;;5044222;28;21561;-67
2022/01/07 02:14:34;;;;;;;21.83;8.02;;;2.10;99.90;;;;;;5038050;28;20047;-66
2022/01/07 02:17:10;;;;;;;17.65;8.32;;;2.10;99.90;;;;;;5031369;28;20152;-66
2022/01/07 02:19:37;;;;;;;22.63;8.52;;;2.00;99.90;;;;;;5036174;28;20052;-66
2022/01/07 02:22:04;;;;;;;20.90;8.25;;;2.00;99.90;;;;;;5045266;28;20477;-66
2022/01/07 02:24:30;;;;;;;20.42;8.35;;;2.00;99.90;;;;;;5014633;28;20044;-67
2022/01/07 02:26:56;;;;;;;18.88;8.98;;;2.00;99.90;;;;;;5044542;28;20091;-67
2022/01/07 02:29:22;;;;;;;22.50;8.98;;;2.00;99.90;;;;;;5043225;28;20041;-64
2022/01/07 02:31:48;;;;;;;21.25;8.88;;;2.00;99.90;;;;;;5034066;28;20211;-67
2022/01/07 02:34:14;;;;;;;17.95;8.77;;;2.00;99.90;;;;;;5027910;28;20125;-64
2022/01/07 02:36:40;;;;;;;21.13;9.85;;;2.00;99.90;;;;;;5044966;28;20044;-67
2022/01/07 02:39:05;;;;;;;18.08;9.57;;;1.90;99.90;;;;;;5042026;28;20029;-67
2022/01/07 02:41:31;;;;;;;20.25;8.65;;;2.00;99.90;;;;;;5038162;28;20037;-66
2022/01/07 02:43:57;;;;;;;18.70;9.23;;;2.00;99.90;;;;;;5040047;28;20029;-64
2022/01/07 02:46:22;;;;;;;21.17;9.40;;;2.10;99.90;;;;;;5038751;28;20099;-63
2022/01/07 02:48:48;;;;;;;23.83;10.13;;;2.00;99.90;;;;;;5035430;28;20341;-66
2022/01/07 02:51:13;;;;;;;21.33;10.63;;;1.90;99.90;;;;;;5033129;28;20041;-64
2022/01/07 02:53:39;;;;;;;21.30;10.27;;;1.80;99.90;;;;;;5043518;28;20061;-67
2022/01/07 02:56:05;;;;;;;20.95;10.80;;;1.90;99.90;;;;;;5038039;28;20049;-65
2022/01/07 02:58:30;;;;;;;25.67;11.02;;;1.90;99.90;;;;;;5025262;28;20041;-64
2022/01/07 03:00:56;;;;;;;24.58;10.25;;;1.80;99.90;;;;;;5036846;28;20144;-66
2022/01/07 03:03:22;;;;;;;23.98;11.27;;;1.90;99.90;;;;;;5011609;28;20776;-64
2022/01/07 03:05:47;;;;;;;25.15;11.07;;;2.00;99.90;;;;;;5046962;28;20060;-66
2022/01/07 03:08:13;;;;;;;23.50;10.70;;;1.90;99.90;;;;;;5047287;28;20129;-64
2022/01/07 03:10:40;;;;;;;23.05;10.30;;;2.00;99.90;;;;;;5031174;28;20095;-65
2022/01/07 03:13:05;;;;;;;21.05;10.82;;;2.00;99.90;;;;;;5042061;28;20121;-67
2022/01/07 03:15:33;;;;;;;30.73;12.50;;;1.70;99.90;;;;;;5046157;28;20140;-66
2022/01/07 03:17:58;;;;;;;24.23;10.88;;;2.20;99.90;;;;;;5041061;28;20061;-66
2022/01/07 03:20:24;;;;;;;26.52;12.35;;;1.90;99.90;;;;;;5046548;28;20053;-64
2022/01/07 03:22:50;;;;;;;22.42;10.82;;;1.70;99.90;;;;;;5029773;28;20508;-64
2022/01/07 03:25:17;;;;;;;25.33;12.00;;;2.10;99.90;;;;;;5033176;28;20163;-66
2022/01/07 03:27:43;;;;;;;26.20;12.02;;;2.20;99.90;;;;;;5036479;28;20451;-65
2022/01/07 03:30:10;;;;;;;21.48;11.80;;;1.90;99.90;;;;;;5043241;28;20029;-66
2022/01/07 03:32:36;;;;;;;28.70;12.20;;;2.10;99.90;;;;;;5046052;28;20041;-65
2022/01/07 03:35:02;;;;;;;25.80;11.98;;;1.80;99.90;;;;;;5033237;28;20040;-65
2022/01/07 03:37:28;;;;;;;28.42;12.32;;;2.30;99.90;;;;;;5041736;28;20071;-64
2022/01/07 03:39:53;;;;;;;26.48;12.63;;;2.20;99.90;;;;;;5058416;28;20049;-65
2022/01/07 03:42:19;;;;;;;26.17;11.88;;;1.70;99.90;;;;;;5046021;28;20045;-66
2022/01/07 03:44:44;;;;;;;23.70;11.82;;;2.10;99.90;;;;;;5047321;28;20041;-64
2022/01/07 03:47:10;;;;;;;19.52;11.68;;;1.70;99.90;;;;;;5020166;28;20144;-65
2022/01/07 03:49:35;;;;;;;25.58;11.50;;;2.20;99.90;;;;;;5035926;28;20060;-66
2022/01/07 03:52:01;;;;;;;20.35;11.75;;;1.90;99.90;;;;;;5046218;28;20124;-65
2022/01/07 03:54:27;;;;;;;27.25;12.27;;;1.90;99.90;;;;;;5062192;28;20045;-66
2022/01/07 03:56:52;;;;;;;24.83;12.98;;;1.90;99.90;;;;;;5045896;28;20048;-66
2022/01/07 03:59:18;;;;;;;25.60;11.77;;;2.30;99.90;;;;;;5037518;28;20037;-64
2022/01/07 04:01:44;;;;;;;25.85;12.23;;;1.80;99.90;;;;;;5030534;28;20504;-65
2022/01/07 04:04:09;;;;;;;22.83;11.13;;;1.70;99.90;;;;;;5025905;28;20473;-64
2022/01/07 04:06:35;;;;;;;24.65;12.68;;;2.00;99.90;;;;;;5047387;28;20477;-64
2022/01/07 04:09:00;;;;;;;21.15;12.05;;;1.80;99.90;;;;;;5045686;28;20037;-64
2022/01/07 04:11:26;;;;;;;26.98;13.02;;;2.30;99.90;;;;;;5011280;28;20033;-65
2022/01/07 04:13:51;;;;;;;25.98;14.07;;;1.80;99.90;;;;;;5043867;28;20059;-65
2022/01/07 04:16:17;;;;;;;23.40;12.63;;;1.90;99.90;;;;;;5041106;28;20136;-64
2022/01/07 04:18:43;;;;;;;25.27;12.38;;;1.80;99.90;;;;;;5042352;28;20138;-66
2022/01/07 04:21:09;;;;;;;28.33;13.05;;;2.40;99.90;;;;;;5042868;28;20037;-66
2022/01/07 04:23:34;;;;;;;26.42;12.18;;;2.10;99.90;;;;;;5036960;28;20416;-64
2022/01/07 04:26:00;;;;;;;26.42;12.88;;;1.90;99.90;;;;;;5038307;28;20072;-64
2022/01/07 04:28:26;;;;;;;27.42;12.18;;;2.40;99.90;;;;;;5043915;28;20613;-65
2022/01/07 04:30:51;;;;;;;28.13;12.15;;;1.80;99.90;;;;;;5029714;28;20055;-63
2022/01/07 04:33:25;;;;;;;25.40;12.88;;;2.30;99.90;;;;;;5035866;28;20124;-64
2022/01/07 04:35:51;;;;;;;27.27;12.75;;;2.30;99.90;;;;;;5027947;28;20080;-66
2022/01/07 04:38:17;;;;;;;24.38;12.23;;;2.00;99.90;;;;;;5046612;28;20087;-66
2022/01/07 04:40:42;;;;;;;29.38;12.90;;;2.10;99.90;;;;;;5031921;28;20076;-65
2022/01/07 04:43:08;;;;;;;25.42;13.25;;;2.00;99.90;;;;;;5037316;28;20435;-66
2022/01/07 04:45:34;;;;;;;32.58;13.07;;;2.30;99.90;;;;;;5032882;28;20190;-65
2022/01/07 04:48:00;;;;;;;25.08;12.50;;;2.20;99.90;;;;;;5030527;28;20037;-64
2022/01/07 04:50:26;;;;;;;24.25;11.70;;;2.40;99.90;;;;;;5037399;28;20041;-65
2022/01/07 04:52:52;;;;;;;26.42;12.75;;;1.90;99.90;;;;;;5032963;28;20049;-64
2022/01/07 04:55:24;;;;;;;25.00;11.88;;;2.30;99.90;;;;;;5046775;28;20189;-64
2022/01/07 04:57:50;;;;;;;23.02;11.65;;;2.50;99.90;;;;;;5038568;28;20052;-64
2022/01/07 05:00:19;;;;;;;24.80;12.80;;;2.50;99.90;;;;;;5042824;28;20072;-66
2022/01/07 05:02:44;;;;;;;26.73;11.90;;;2.10;99.90;;;;;;5035401;28;20053;-64
2022/01/07 05:05:11;;;;;;;22.15;11.25;;;2.40;99.90;;;;;;5036884;28;20075;-65
2022/01/07 05:07:37;;;;;;;25.15;11.90;;;2.50;99.90;;;;;;5051845;28;20398;-67
2022/01/07 05:10:05;;;;;;;23.05;11.48;;;2.50;99.90;;;;;;5046347;28;20098;-65
2022/01/07 05:12:31;;;;;;;23.13;12.68;;;2.10;99.90;;;;;;5042486;28;20794;-65
2022/01/07 05:14:56;;;;;;;20.65;11.57;;;2.30;99.90;;;;;;5048461;28;20049;-65
2022/01/07 05:17:22;;;;;;;20.42;10.68;;;2.20;99.90;;;;;;5036803;28;20052;-66
2022/01/07 05:19:48;;;;;;;21.35;10.63;;;2.50;99.90;;;;;;5042401;28;20045;-65
2022/01/07 05:22:14;;;;;;;23.02;12.02;;;2.30;99.90;;;;;;5022583;28;20052;-65
2022/01/07 05:24:40;;;;;;;18.70;10.02;;;1.90;99.90;;;;;;5030299;28;20020;-66
2022/01/07 05:27:05;;;;;;;23.50;12.02;;;2.30;99.90;;;;;;5041804;28;20030;-64
2022/01/07 05:29:34;;;;;;;21.77;11.25;;;2.40;99.90;;;;;;5017272;28;20462;-66
2022/01/07 05:32:04;;;;;;;20.85;11.18;;;1.90;99.90;;;;;;5043322;28;20438;-64
2022/01/07 05:34:30;;;;;;;19.98;10.75;;;2.00;99.90;;;;;;5013755;28;20042;-63
2022/01/07 05:36:56;;;;;;;23.25;10.75;;;2.10;99.90;;;;;;5044658;28;20079;-66
2022/01/07 05:39:22;;;;;;;20.58;11.40;;;2.30;99.90;;;;;;5023814;28;20036;-66
2022/01/07 05:41:47;;;;;;;19.80;10.60;;;2.20;99.90;;;;;;5040426;28;20037;-66
2022/01/07 05:44:13;;;;;;;21.88;11.48;;;2.40;99.90;;;;;;5044825;28;20037;-65
2022/01/07 05:46:38;;;;;;;20.30;10.90;;;2.00;99.90;;;;;;5037453;28;20048;-64
2022/01/07 05:49:04;;;;;;;19.17;10.82;;;2.50;99.90;;;;;;5031004;28;20488;-66
2022/01/07 05:51:29;;;;;;;22.55;10.65;;;2.10;99.90;;;;;;5045818;28;20025;-65
2022/01/07 05:53:55;;;;;;;21.95;10.48;;;2.50;99.90;;;;;;5039277;28;20102;-65
2022/01/07 05:56:20;;;;;;;19.52;10.40;;;2.50;99.90;;;;;;5050522;28;20433;-65
2022/01/07 05:58:46;;;;;;;18.05;10.55;;;2.20;99.90;;;;;;5038637;28;20665;-63
2022/01/07 06:01:12;;;;;;;20.73;10.10;;;2.20;99.90;;;;;;5049496;28;20041;-65
2022/01/07 06:03:39;;;;;;;17.20;9.77;;;2.20;99.90;;;;;;5021434;28;20037;-65
2022/01/07 06:06:04;;;;;;;18.55;9.82;;;2.20;99.90;;;;;;5012117;28;20037;-64
2022/01/07 06:08:30;;;;;;;18.13;9.30;;;2.20;99.90;;;;;;5035857;28;20399;-66
2022/01/07 06:10:55;;;;;;;23.67;11.15;;;2.20;99.90;;;;;;5046519;28;20123;-65
2022/01/07 06:13:21;;;;;;;15.55;9.60;;;2.20;99.90;;;;;;5033847;28;20125;-64
2022/01/07 06:15:47;;;;;;;16.35;9.40;;;2.50;99.90;;;;;;5045966;28;20124;-65
2022/01/07 06:18:12;;;;;;;17.77;9.20;;;2.20;99.90;;;;;;5030942;28;20099;-66
2022/01/07 06:20:38;;;;;;;16.50;9.30;;;2.20;99.90;;;;;;5021120;28;20047;-64
2022/01/07 06:23:03;;;;;;;20.30;9.35;;;2.20;99.90;;;;;;5039612;28;20041;-68
2022/01/07 06:25:29;;;;;;;13.38;9.18;;;2.20;99.90;;;;;;5018756;28;20041;-65
2022/01/07 06:27:54;;;;;;;16.73;9.18;;;2.30;99.90;;;;;;5046755;28;20495;-66
2022/01/07 06:30:20;;;;;;;18.55;9.07;;;2.50;99.90;;;;;;5035653;28;20479;-65
2022/01/07 06:32:46;;;;;;;16.05;9.48;;;2.50;99.90;;;;;;5046450;28;20082;-65
2022/01/07 06:35:12;;;;;;;17.83;9.75;;;2.30;99.90;;;;;;5039548;28;20388;-64
2022/01/07 06:37:38;;;;;;;17.98;9.68;;;2.50;99.90;;;;;;5047737;28;20546;-66
2022/01/07 06:40:05;;;;;;;19.52;9.23;;;2.40;99.90;;;;;;5035984;28;20119;-67
2022/01/07 06:42:31;;;;;;;13.93;8.95;;;2.50;99.90;;;;;;5033330;28;20048;-66
2022/01/07 06:44:56;;;;;;;18.40;9.25;;;2.50;99.90;;;;;;5029275;28;20037;-65
2022/01/07 06:47:22;;;;;;;14.85;9.35;;;2.40;99.90;;;;;;5065290;28;20051;-65
2022/01/07 06:49:48;;;;;;;16.83;9.25;;;2.30;99.90;;;;;;5037509;28;20528;-66
2022/01/07 06:52:13;;;;;;;17.85;10.35;;;2.30;99.90;;;;;;5036205;28;20059;-67
2022/01/07 06:54:39;;;;;;;16.02;10.07;;;2.60;99.90;;;;;;5047496;28;20052;-65
2022/01/07 06:57:04;;;;;;;18.67;9.25;;;2.50;99.90;;;;;;5030369;28;20808;-65
2022/01/07 06:59:30;;;;;;;17.15;9.68;;;2.50;99.90;;;;;;5033478;28;20215;-65
2022/01/07 07:01:56;;;;;;;17.15;10.27;;;2.60;99.90;;;;;;5029672;28;20102;-66
2022/01/07 07:04:21;;;;;;;15.60;8.90;;;2.50;99.90;;;;;;5030876;28;20040;-66
2022/01/07 07:06:47;;;;;;;20.02;9.80;;;2.40;99.90;;;;;;5032041;28;20183;-68
2022/01/07 07:09:13;;;;;;;18.40;9.90;;;2.70;99.90;;;;;;5029388;28;20041;-66
2022/01/07 07:11:39;;;;;;;17.05;9.27;;;2.70;99.90;;;;;;5028305;28;20116;-66
2022/01/07 07:14:05;;;;;;;18.48;9.88;;;2.70;99.90;;;;;;5011886;28;20056;-65
2022/01/07 07:16:31;;;;;;;16.00;9.13;;;2.60;99.90;;;;;;5030585;28;20041;-66
2022/01/07 07:18:56;;;;;;;17.33;9.90;;;2.50;99.90;;;;;;5046578;28;20136;-65
2022/01/07 07:21:22;;;;;;;17.15;9.60;;;2.70;99.90;;;;;;5042806;28;20413;-68
2022/01/07 07:23:48;;;;;;;18.25;9.02;;;2.80;99.90;;;;;;5047267;28;20381;-66
2022/01/07 07:26:13;;;;;;;15.45;9.88;;;2.80;99.90;;;;;;5038169;28;20045;-66
2022/01/07 07:28:39;;;;;;;16.42;9.90;;;2.70;99.90;;;;;;5009904;28;20042;-67
2022/01/07 07:31:10;;;;;;;16.20;9.55;;;2.70;99.90;;;;;;5027730;28;20048;-65
2022/01/07 07:36:27;;;;;;;17.52;9.73;;;2.60;99.90;;;;;;5037858;28;20049;-66
2022/01/07 07:39:06;;;;;;;17.83;10.35;;;2.80;99.90;;;;;;5033277;28;20056;-66
2022/01/07 07:41:33;;;;;;;17.40;9.60;;;2.90;99.90;;;;;;5027044;28;20037;-65
2022/01/07 07:43:59;;;;;;;18.95;10.30;;;2.70;99.90;;;;;;5026584;28;20326;-68
2022/01/07 07:46:28;;;;;;;20.65;10.98;;;2.80;99.90;;;;;;5027858;28;20030;-66
2022/01/07 07:48:54;;;;;;;24.50;11.70;;;2.80;99.90;;;;;;5025327;28;20045;-66
2022/01/07 07:51:20;;;;;;;22.63;12.00;;;2.60;99.90;;;;;;5027813;28;20086;-67
2022/01/07 07:53:46;;;;;;;18.98;11.40;;;2.90;99.90;;;;;;5013618;28;20037;-67
2022/01/07 07:56:13;;;;;;;23.35;12.27;;;2.70;99.90;;;;;;5010565;28;20039;-66
2022/01/07 07:58:39;;;;;;;21.13;11.75;;;3.00;99.90;;;;;;5026666;28;20037;-67
2022/01/07 08:01:06;;;;;;;21.45;13.43;;;2.70;99.90;;;;;;5026838;28;20098;-64
2022/01/07 08:03:32;;;;;;;23.95;12.40;;;3.00;99.90;;;;;;5036239;28;20033;-68
2022/01/07 08:05:58;;;;;;;24.83;12.73;;;3.10;99.90;;;;;;5043359;28;20148;-67
2022/01/07 08:08:23;;;;;;;21.25;12.38;;;2.90;99.90;;;;;;5031645;28;20121;-68
2022/01/07 08:10:52;;;;;;;23.92;12.88;;;3.10;99.90;;;;;;5032459;28;20041;-67
2022/01/07 08:15:59;;;;;;;25.45;12.60;;;3.00;99.90;;;;;;5037300;28;20059;-67
2022/01/07 08:18:29;;;;;;;24.30;13.23;;;3.00;99.90;;;;;;5047009;28;20053;-67
2022/01/07 08:20:56;;;;;;;;;;;3.00;99.90;;;;;;5024872;28;20060;-66
2022/01/07 08:23:21;;;;;;;26.00;12.88;;;3.10;99.90;;;;;;5032066;28;19971;-67
2022/01/07 08:25:47;;;;;;;24.95;13.50;;;2.90;99.90;;;;;;5035444;28;20376;-67
2022/01/07 08:28:14;;;;;;;24.00;13.30;;;3.10;99.90;;;;;;5040018;28;20056;-65
2022/01/07 08:36:10;;;;;;;28.45;13.40;;;3.30;99.90;;;;;;5031709;28;20128;-66
2022/01/07 08:38:36;;;;;;;29.92;14.02;;;3.10;99.90;;;;;;5031788;28;20117;-66
2022/01/07 08:41:02;;;;;;;32.10;15.18;;;3.10;99.90;;;;;;5037284;28;20102;-67
2022/01/07 08:43:27;;;;;;;28.38;14.85;;;3.20;99.90;;;;;;5045382;28;20040;-67
2022/01/07 08:45:53;;;;;;;31.88;15.38;;;3.30;99.90;;;;;;5040276;28;20119;-67
2022/01/07 08:48:18;;;;;;;33.88;15.98;;;3.20;99.90;;;;;;5022229;28;20048;-67
2022/01/07 08:50:44;;;;;;;35.63;15.57;;;3.30;99.90;;;;;;5021405;28;20072;-67
2022/01/07 08:53:11;;;;;;;33.22;15.23;;;3.30;99.90;;;;;;5042860;28;20812;-68
2022/01/07 08:55:36;;;;;;;28.30;15.10;;;3.40;99.90;;;;;;5044790;28;20033;-67
2022/01/07 08:58:03;;;;;;;30.88;15.48;;;3.50;99.90;;;;;;5046272;28;20415;-67
2022/01/07 09:00:29;;;;;;;33.67;15.98;;;3.50;99.90;;;;;;5044033;28;20417;-66
2022/01/07 09:02:55;;;;;;;31.92;17.08;;;3.50;99.90;;;;;;5046318;28;20041;-68
2022/01/07 09:05:20;;;;;;;34.78;17.15;;;3.50;99.90;;;;;;5043342;28;20538;-64
2022/01/07 09:07:46;;;;;;;34.05;16.63;;;3.50;99.90;;;;;;5042781;28;20041;-67
2022/01/07 09:10:11;;;;;;;37.25;16.98;;;3.50;99.90;;;;;;5045524;28;20062;-66
2022/01/07 09:12:37;;;;;;;31.27;16.20;;;3.60;99.90;;;;;;5043078;28;20036;-67
2022/01/07 09:15:03;;;;;;;29.33;15.90;;;3.60;99.90;;;;;;5027395;28;20048;-67
2022/01/07 09:17:30;;;;;;;38.67;17.48;;;3.90;99.90;;;;;;5042829;28;20427;-68
2022/01/07 09:19:55;;;;;;;32.03;16.48;;;3.80;99.90;;;;;;5037148;28;20499;-66
2022/01/07 09:22:21;;;;;;;33.85;17.52;;;3.90;99.90;;;;;;5053204;28;20044;-67
2022/01/07 09:24:47;;;;;;;31.30;16.50;;;4.00;99.90;;;;;;5038174;28;20516;-67
2022/01/07 09:27:12;;;;;;;37.45;17.52;;;3.80;99.90;;;;;;5030878;28;20060;-66
2022/01/07 09:29:38;;;;;;;32.92;16.95;;;3.90;99.90;;;;;;5043228;28;20116;-65
2022/01/07 09:32:04;;;;;;;32.38;16.05;;;3.90;99.90;;;;;;5040266;28;20472;-65
2022/01/07 09:34:29;;;;;;;34.50;16.35;;;3.90;99.90;;;;;;5041262;28;20128;-67
2022/01/07 09:36:55;;;;;;;32.88;16.55;;;3.90;99.90;;;;;;5025373;28;20634;-66
2022/01/07 09:39:21;;;;;;;36.67;17.33;;;3.90;99.90;;;;;;5042670;28;20045;-66
2022/01/07 09:41:47;;;;;;;38.55;16.95;;;4.00;99.90;;;;;;5020998;28;20032;-66
2022/01/07 09:44:13;;;;;;;37.38;18.13;;;4.10;99.90;;;;;;5030620;28;20045;-67
2022/01/07 09:46:40;;;;;;;40.13;18.25;;;4.10;99.90;;;;;;5046263;28;20675;-68
2022/01/07 09:49:06;;;;;;;33.63;16.27;;;4.10;99.90;;;;;;5045226;28;20121;-67
2022/01/07 09:51:31;;;;;;;36.15;17.08;;;4.30;99.90;;;;;;5044336;28;20731;-67
2022/01/07 09:54:01;;;;;;;34.00;17.13;;;4.20;99.90;;;;;;5038232;28;20143;-67
2022/01/07 09:56:26;;;;;;;35.70;18.23;;;4.20;99.90;;;;;;5048745;28;20063;-67
2022/01/07 09:58:52;;;;;;;33.22;17.25;;;4.20;99.90;;;;;;5045205;28;20128;-67
2022/01/07 10:01:20;;;;;;;31.52;17.40;;;4.20;99.90;;;;;;5024922;28;20107;-67
2022/01/07 10:03:45;;;;;;;34.83;16.58;;;4.30;99.90;;;;;;5016020;28;20047;-66
2022/01/07 10:06:25;;;;;;;39.65;17.85;;;4.30;99.90;;;;;;5050288;28;20033;-66
2022/01/07 10:09:10;;;;;;;35.70;17.10;;;4.20;99.90;;;;;;5030397;28;20457;-65
2022/01/07 10:11:35;;;;;;;42.65;18.35;;;4.30;99.90;;;;;;5033939;28;20302;-67
2022/01/07 10:14:21;;;;;;;38.80;17.38;;;4.20;99.90;;;;;;5049116;28;20041;-66
2022/01/07 10:16:56;;;;;;;39.78;18.40;;;4.30;99.90;;;;;;5047076;28;20079;-66
2022/01/07 10:19:40;;;;;;;33.75;17.48;;;4.30;99.90;;;;;;5049271;28;20052;-66
2022/01/07 10:22:11;;;;;;;38.67;17.60;;;4.30;99.90;;;;;;5046326;28;20083;-66
2022/01/07 10:24:52;;;;;;;37.53;17.25;;;4.30;99.90;;;;;;5030075;28;20061;-66
2022/01/07 10:27:18;;;;;;;31.27;15.23;;;4.30;99.90;;;;;;5044467;28;20053;-65
2022/01/07 10:29:44;;;;;;;27.02;13.52;;;4.30;99.90;;;;;;5023162;28;20076;-63
2022/01/07 10:32:25;;;;;;;23.77;12.45;;;4.20;99.90;;;;;;5046803;28;20579;-63
2022/01/07 10:35:09;;;;;;;21.02;10.85;;;4.30;99.90;;;;;;5030589;28;20041;-64
2022/01/07 10:38:01;;;;;;;23.90;11.05;;;4.20;99.90;;;;;;5045220;28;20057;-65
2022/01/07 10:40:38;;;;;;;21.40;10.38;;;4.20;99.90;;;;;;5047140;28;20124;-65
2022/01/07 10:43:35;;;;;;;22.67;10.85;;;4.30;99.90;;;;;;5039392;28;20412;-66
2022/01/07 10:46:26;;;;;;;18.42;8.73;;;4.20;99.90;;;;;;5043332;28;20094;-66
2022/01/07 10:49:00;;;;;;;19.40;8.57;;;4.20;99.90;;;;;;5028779;28;20077;-66
2022/01/07 10:51:36;;;;;;;21.23;8.98;;;4.10;99.90;;;;;;5029988;28;20125;-66
2022/01/07 10:54:05;;;;;;;17.77;8.80;;;4.00;99.90;;;;;;5042539;28;20041;-64
2022/01/07 10:56:36;;;;;;;19.42;8.75;;;3.90;99.90;;;;;;5048207;28;20132;-66
2022/01/07 10:59:13;;;;;;;17.30;9.25;;;3.90;99.90;;;;;;5009806;28;20381;-65
2022/01/07 11:01:42;;;;;;;18.65;9.23;;;3.90;99.90;;;;;;5041034;28;20041;-68
2022/01/07 11:04:32;;;;;;;17.40;9.65;;;3.80;99.90;;;;;;5030330;28;20045;-65
2022/01/07 11:07:00;;;;;;;18.90;9.48;;;4.00;99.90;;;;;;5048910;28;20211;-67
2022/01/07 11:09:26;;;;;;;23.60;10.05;;;4.00;99.90;;;;;;5031579;28;20037;-66
2022/01/07 11:11:57;;;;;;;21.38;10.88;;;4.00;99.90;;;;;;5034527;28;20048;-66
2022/01/07 11:14:31;;;;;;;19.88;10.25;;;4.10;99.90;;;;;;5040871;28;20037;-67
2022/01/07 11:16:59;;;;;;;22.90;10.70;;;4.10;99.90;;;;;;5038320;28;20052;-66
2022/01/07 11:19:31;;;;;;;20.23;10.07;;;4.20;99.90;;;;;;5046754;28;20044;-66
2022/01/07 11:21:57;;;;;;;20.90;9.55;;;4.30;99.90;;;;;;5038209;28;20114;-67
2022/01/07 11:24:34;;;;;;;19.88;9.02;;;4.20;99.90;;;;;;5042524;28;20479;-66
2022/01/07 11:27:21;;;;;;;20.48;8.93;;;4.20;99.90;;;;;;5020750;28;20183;-68
2022/01/07 11:30:04;;;;;;;19.35;8.27;;;4.20;99.90;;;;;;5060302;28;20049;-65
2022/01/07 11:32:38;;;;;;;20.73;8.35;;;4.30;99.90;;;;;;5027071;28;20449;-65
2022/01/07 11:35:19;;;;;;;16.38;7.40;;;4.30;99.90;;;;;;5039556;28;20397;-66
2022/01/07 11:37:59;;;;;;;19.13;7.50;;;4.40;99.90;;;;;;5035967;28;20073;-67
2022/01/07 11:40:31;;;;;;;18.17;8.20;;;4.50;99.90;;;;;;5012936;28;20049;-67
2022/01/07 11:43:05;;;;;;;14.98;7.88;;;4.60;99.90;;;;;;5028349;28;20049;-67
2022/01/07 11:45:38;;;;;;;19.75;8.35;;;4.60;99.90;;;;;;5043248;28;20064;-66
2022/01/07 11:48:18;;;;;;;21.48;9.30;;;4.50;99.90;;;;;;5027286;28;20043;-66
2022/01/07 11:50:56;;;;;;;22.52;10.27;;;4.50;99.90;;;;;;5031283;28;20045;-67
2022/01/07 11:53:46;;;;;;;25.73;10.70;;;4.50;99.90;;;;;;5027152;28;20210;-66
2022/01/07 11:56:14;;;;;;;19.23;10.90;;;4.40;99.90;;;;;;5061064;28;20037;-67
2022/01/07 11:58:43;;;;;;;24.58;11.35;;;4.30;99.90;;;;;;5028120;28;20087;-66
2022/01/07 12:01:29;;;;;;;21.38;11.20;;;4.30;99.90;;;;;;5027776;28;20052;-66
2022/01/07 12:03:57;;;;;;;25.67;12.40;;;4.30;99.90;;;;;;5028769;28;20045;-67
2022/01/07 12:06:29;;;;;;;24.98;12.63;;;4.40;99.90;;;;;;5047089;28;20033;-67
2022/01/07 12:09:09;;;;;;;25.40;12.48;;;4.30;99.90;;;;;;5045994;28;20040;-66
2022/01/07 12:11:56;;;;;;;24.88;12.13;;;4.40;99.90;;;;;;5047205;28;20045;-67
2022/01/07 12:14:27;;;;;;;24.02;11.98;;;4.40;99.90;;;;;;5043827;28;20047;-67
2022/01/07 12:16:56;;;;;;;25.23;13.20;;;4.40;99.90;;;;;;5020522;28;20057;-67
2022/01/07 12:19:37;;;;;;;28.95;12.75;;;4.50;99.90;;;;;;5022922;28;20598;-67
2022/01/07 12:22:08;;;;;;;27.98;12.48;;;4.50;99.90;;;;;;5046800;28;20041;-65
2022/01/07 12:24:33;;;;;;;20.05;11.05;;;4.50;99.90;;;;;;5032119;28;20112;-66
2022/01/07 12:27:17;;;;;;;18.10;9.38;;;4.50;99.90;;;;;;5028428;28;20473;-67
2022/01/07 12:29:44;;;;;;;18.90;9.70;;;4.50;99.90;;;;;;5033995;28;20049;-67
2022/01/07 12:32:12;;;;;;;18.75;9.52;;;4.60;99.90;;;;;;5016998;28;20095;-66
2022/01/07 12:34:43;;;;;;;22.67;9.38;;;4.80;99.90;;;;;;5039491;28;20029;-67
2022/01/07 12:37:11;;;;;;;19.58;8.48;;;4.90;99.90;;;;;;5046668;28;20056;-67
2022/01/07 12:39:49;;;;;;;17.25;8.00;;;5.00;99.90;;;;;;5040112;28;20029;-66
2022/01/07 12:42:15;;;;;;;18.60;7.13;;;4.90;99.90;;;;;;5047603;28;20152;-65
2022/01/07 12:44:43;;;;;;;13.48;5.82;;;4.90;99.90;;;;;;5042184;28;20063;-67
2022/01/07 12:47:12;;;;;;;9.48;4.75;;;5.00;99.90;;;;;;5046166;28;20044;-66
2022/01/07 12:49:45;;;;;;;9.73;3.60;;;4.90;99.90;;;;;;5040676;28;20025;-67
2022/01/07 12:52:19;;;;;;;10.38;3.40;;;4.80;99.90;;;;;;5038016;28;20043;-65
2022/01/07 12:55:12;;;;;;;6.38;2.50;;;4.80;99.90;;;;;;5043685;28;20460;-66